createdAt,value
2018-08-18T00:02:22.895Z,21.10
2018-08-18T00:04:54.402Z,21.10
2018-08-18T00:07:26.708Z,20.90
2018-08-18T00:09:57.830Z,21.00
2018-08-18T00:12:29.893Z,20.90
2018-08-18T00:15:01.643Z,20.90
2018-08-18T00:20:17.001Z,20.90
2018-08-18T00:22:49.340Z,20.80
2018-08-18T00:25:19.943Z,20.80
2018-08-18T00:27:50.908Z,20.60
2018-08-18T00:30:24.969Z,20.20
2018-08-18T00:35:50.030Z,20.00
2018-08-18T00:38:19.085Z,19.80
2018-08-18T00:40:47.912Z,19.70
2018-08-18T00:43:17.180Z,19.80
2018-08-18T00:45:45.984Z,19.90
2018-08-18T00:48:15.205Z,20.00
2018-08-18T00:50:44.951Z,19.90
2018-08-18T00:53:15.242Z,19.90
2018-08-18T00:55:44.281Z,19.70
2018-08-18T00:58:18.397Z,19.90
2018-08-18T01:00:51.861Z,20.10
2018-08-18T01:03:20.709Z,20.50
2018-08-18T01:05:49.641Z,20.20
2018-08-18T01:08:18.544Z,19.90
2018-08-18T01:10:47.640Z,20.00
2018-08-18T01:13:16.796Z,19.80
2018-08-18T01:15:45.961Z,19.90
2018-08-18T01:18:14.897Z,20.10
2018-08-18T01:20:43.905Z,20.30
2018-08-18T01:23:13.521Z,20.50
2018-08-18T01:25:42.962Z,20.40
2018-08-18T01:28:12.813Z,20.30
2018-08-18T01:30:42.757Z,20.30
2018-08-18T01:33:15.862Z,20.30
2018-08-18T01:35:45.321Z,20.30
2018-08-18T01:38:20.220Z,20.30
2018-08-18T01:40:54.872Z,20.30
2018-08-18T01:43:25.947Z,20.40
2018-08-18T01:45:56.585Z,19.90
2018-08-18T01:48:27.455Z,20.00
2018-08-18T01:51:09.026Z,20.00
2018-08-18T01:53:39.848Z,19.60
2018-08-18T01:56:11.337Z,19.60
2018-08-18T01:58:43.686Z,19.60
2018-08-18T02:01:17.389Z,19.70
2018-08-18T02:03:47.495Z,19.70
2018-08-18T02:06:19.045Z,19.80
2018-08-18T02:08:59.526Z,19.60
2018-08-18T02:11:30.972Z,19.60
2018-08-18T02:14:03.422Z,19.90
2018-08-18T02:16:35.831Z,19.80
2018-08-18T02:19:06.972Z,19.70
2018-08-18T02:21:38.626Z,19.90
2018-08-18T02:24:10.850Z,20.00
2018-08-18T02:26:42.403Z,19.70
2018-08-18T02:29:13.290Z,19.70
2018-08-18T02:31:44.011Z,19.40
2018-08-18T02:34:14.649Z,19.40
2018-08-18T02:36:49.985Z,19.70
2018-08-18T02:39:22.383Z,19.60
2018-08-18T02:42:05.968Z,19.80
2018-08-18T02:44:36.613Z,19.70
2018-08-18T02:47:07.562Z,19.20
2018-08-18T02:49:42.987Z,19.30
2018-08-18T02:52:24.886Z,19.20
2018-08-18T02:55:01.078Z,19.10
2018-08-18T02:57:34.283Z,19.10
2018-08-18T03:00:07.934Z,19.10
2018-08-18T03:02:39.687Z,18.90
2018-08-18T03:05:12.440Z,19.20
2018-08-18T03:07:48.802Z,19.40
2018-08-18T03:10:27.702Z,19.50
2018-08-18T03:13:02.471Z,19.40
2018-08-18T03:16:11.745Z,18.80
2018-08-18T03:18:49.144Z,18.80
2018-08-18T03:21:18.361Z,18.90
2018-08-18T03:23:58.654Z,18.60
2018-08-18T03:26:35.945Z,18.80
2018-08-18T03:29:05.397Z,18.90
2018-08-18T03:31:34.260Z,18.80
2018-08-18T03:34:03.682Z,18.50
2018-08-18T03:36:35.748Z,18.50
2018-08-18T03:39:08.082Z,18.30
2018-08-18T03:41:37.225Z,18.60
2018-08-18T03:44:06.113Z,18.80
2018-08-18T03:46:35.125Z,18.80
2018-08-18T03:49:03.972Z,18.80
2018-08-18T03:51:39.057Z,19.00
2018-08-18T03:54:14.977Z,19.00
2018-08-18T03:56:44.194Z,19.00
2018-08-18T03:59:13.028Z,18.90
2018-08-18T04:01:53.372Z,18.80
2018-08-18T04:04:23.982Z,18.70
2018-08-18T04:06:54.255Z,18.70
2018-08-18T04:09:24.491Z,18.70
2018-08-18T04:11:53.920Z,18.80
2018-08-18T04:14:43.634Z,18.80
2018-08-18T04:17:24.434Z,18.70
2018-08-18T04:19:53.409Z,18.90
2018-08-18T04:22:23.200Z,19.10
2018-08-18T04:24:52.285Z,18.90
2018-08-18T04:27:41.758Z,18.80
2018-08-18T04:30:25.272Z,18.90
2018-08-18T04:32:56.309Z,18.80
2018-08-18T04:35:26.514Z,18.90
2018-08-18T04:37:56.257Z,18.80
2018-08-18T04:40:25.667Z,18.80
2018-08-18T04:43:00.142Z,19.10
2018-08-18T04:45:29.140Z,19.10
2018-08-18T04:47:58.217Z,19.30
2018-08-18T04:50:27.067Z,19.10
2018-08-18T04:52:56.035Z,19.20
2018-08-18T04:55:25.901Z,19.30
2018-08-18T04:57:54.931Z,19.40
2018-08-18T05:00:25.411Z,19.20
2018-08-18T05:02:58.358Z,19.60
2018-08-18T05:05:29.370Z,20.10
2018-08-18T05:08:00.185Z,20.10
2018-08-18T05:10:29.253Z,20.40
2018-08-18T05:12:58.180Z,20.70
2018-08-18T05:15:27.173Z,21.20
2018-08-18T05:17:56.135Z,21.50
2018-08-18T05:20:26.296Z,21.40
2018-08-18T05:22:57.050Z,21.70
2018-08-18T05:25:31.080Z,21.70
2018-08-18T05:28:01.109Z,21.70
2018-08-18T05:30:29.952Z,21.50
2018-08-18T05:32:58.796Z,21.30
2018-08-18T05:35:34.258Z,21.70
2018-08-18T05:38:03.223Z,22.10
2018-08-18T05:40:33.252Z,21.70
2018-08-18T05:43:02.770Z,22.00
2018-08-18T05:45:33.732Z,21.70
2018-08-18T05:48:02.756Z,22.00
2018-08-18T05:50:31.892Z,22.20
2018-08-18T05:53:23.176Z,22.70
2018-08-18T05:55:52.227Z,22.80
2018-08-18T05:58:21.187Z,23.00
2018-08-18T06:03:27.274Z,23.30
2018-08-18T06:05:57.900Z,23.30
2018-08-18T06:08:27.314Z,23.50
2018-08-18T06:10:56.197Z,23.50
2018-08-18T06:13:25.037Z,23.70
2018-08-18T06:16:08.341Z,23.90
2018-08-18T06:18:38.637Z,23.70
2018-08-18T06:21:08.006Z,23.80
2018-08-18T06:23:37.931Z,23.40
2018-08-18T06:26:07.454Z,23.60
2018-08-18T06:28:36.380Z,23.70
2018-08-18T06:31:05.317Z,23.50
2018-08-18T06:33:34.250Z,23.90
2018-08-18T06:38:37.870Z,24.20
2018-08-18T06:41:07.263Z,24.30
2018-08-18T06:43:36.161Z,24.40
2018-08-18T06:46:05.120Z,24.70
2018-08-18T06:48:36.579Z,24.10
2018-08-18T06:51:05.510Z,24.20
2018-08-18T06:53:40.220Z,24.50
2018-08-18T06:56:09.393Z,24.70
2018-08-18T06:58:38.429Z,24.50
2018-08-18T07:01:07.869Z,24.60
2018-08-18T07:03:40.651Z,24.60
2018-08-18T07:06:11.929Z,24.70
2018-08-18T07:08:46.120Z,24.80
2018-08-18T07:11:15.081Z,25.10
2018-08-18T07:13:44.559Z,24.60
2018-08-18T07:16:13.523Z,24.50
2018-08-18T07:18:42.476Z,24.50
2018-08-18T07:21:11.936Z,24.30
2018-08-18T07:23:40.879Z,24.00
2018-08-18T07:26:10.025Z,24.10
2018-08-18T07:28:39.131Z,24.30
2018-08-18T07:31:08.020Z,24.60
2018-08-18T07:33:36.815Z,25.10
2018-08-18T07:36:05.626Z,25.50
2018-08-18T07:38:34.538Z,25.80
2018-08-18T07:41:03.498Z,25.80
2018-08-18T07:43:33.748Z,25.50
2018-08-18T07:46:04.163Z,25.50
2018-08-18T07:48:32.911Z,25.70
2018-08-18T07:51:01.987Z,26.00
2018-08-18T07:53:30.884Z,26.40
2018-08-18T07:55:59.755Z,26.40
2018-08-18T07:58:28.835Z,26.60
2018-08-18T08:01:02.234Z,26.60
2018-08-18T08:03:31.385Z,26.60
2018-08-18T08:06:00.361Z,27.10
2018-08-18T08:08:34.671Z,27.00
2018-08-18T08:11:08.968Z,26.80
2018-08-18T08:13:37.796Z,26.50
2018-08-18T08:16:06.657Z,26.50
2018-08-18T08:18:35.490Z,26.10
2018-08-18T08:21:04.436Z,26.30
2018-08-18T08:23:33.274Z,26.60
2018-08-18T08:26:02.122Z,26.80
2018-08-18T08:28:31.005Z,27.00
2018-08-18T08:31:00.066Z,26.60
2018-08-18T08:33:38.296Z,27.00
2018-08-18T08:36:10.101Z,27.50
2018-08-18T08:38:51.196Z,27.00
2018-08-18T08:41:23.065Z,27.30
2018-08-18T08:43:53.134Z,27.60
2018-08-18T08:46:23.081Z,27.80
2018-08-18T08:48:55.969Z,27.90
2018-08-18T08:51:25.744Z,28.00
2018-08-18T08:53:57.284Z,28.00
2018-08-18T08:56:35.112Z,28.10
2018-08-18T08:59:04.400Z,28.10
2018-08-18T09:01:33.358Z,28.50
2018-08-18T09:04:02.515Z,28.80
2018-08-18T09:06:31.736Z,29.00
2018-08-18T09:09:00.932Z,28.70
2018-08-18T09:11:30.282Z,28.60
2018-08-18T09:14:07.673Z,28.70
2018-08-18T09:16:37.272Z,28.80
2018-08-18T09:19:07.007Z,28.30
2018-08-18T09:21:44.093Z,28.80
2018-08-18T09:24:12.981Z,29.10
2018-08-18T09:26:48.485Z,29.10
2018-08-18T09:29:17.363Z,29.00
2018-08-18T09:31:46.669Z,29.10
2018-08-18T09:34:15.608Z,29.40
2018-08-18T09:36:45.465Z,29.40
2018-08-18T09:39:20.064Z,29.40
2018-08-18T09:41:49.226Z,29.20
2018-08-18T09:44:23.525Z,29.50
2018-08-18T09:46:52.604Z,29.60
2018-08-18T09:49:21.701Z,29.80
2018-08-18T09:51:50.831Z,29.90
2018-08-18T09:54:20.057Z,30.30
2018-08-18T09:56:49.104Z,30.40
2018-08-18T09:59:18.293Z,30.80
2018-08-18T10:01:47.902Z,30.60
2018-08-18T10:04:23.407Z,30.20
2018-08-18T10:06:53.038Z,30.00
2018-08-18T10:09:22.671Z,30.30
2018-08-18T10:11:51.704Z,29.90
2018-08-18T10:14:20.690Z,29.90
2018-08-18T10:16:49.796Z,30.70
2018-08-18T10:19:18.968Z,31.10
2018-08-18T10:21:48.018Z,31.30
2018-08-18T10:24:17.279Z,31.40
2018-08-18T10:26:53.004Z,31.90
2018-08-18T10:29:22.489Z,32.10
2018-08-18T10:31:52.490Z,31.90
2018-08-18T10:34:22.666Z,31.60
2018-08-18T10:36:55.226Z,31.50
2018-08-18T10:39:24.501Z,31.50
2018-08-18T10:42:03.795Z,31.70
2018-08-18T10:44:32.951Z,32.10
2018-08-18T10:47:15.946Z,31.50
2018-08-18T10:49:55.981Z,31.90
2018-08-18T10:52:37.966Z,31.80
2018-08-18T10:55:09.440Z,31.90
2018-08-18T10:57:50.519Z,32.10
2018-08-18T11:00:20.825Z,31.40
2018-08-18T11:02:50.986Z,31.20
2018-08-18T11:05:20.671Z,31.00
2018-08-18T11:07:56.018Z,30.50
2018-08-18T11:10:26.966Z,30.20
2018-08-18T11:12:56.940Z,30.90
2018-08-18T11:15:26.943Z,31.40
2018-08-18T11:17:57.968Z,32.00
2018-08-18T11:20:28.551Z,32.10
2018-08-18T11:23:05.095Z,32.20
2018-08-18T11:25:40.053Z,32.50
2018-08-18T11:28:09.956Z,32.70
2018-08-18T11:30:39.130Z,32.10
2018-08-18T11:33:08.108Z,32.60
2018-08-18T11:35:38.567Z,32.60
2018-08-18T11:38:12.438Z,32.10
2018-08-18T11:40:41.641Z,31.60
2018-08-18T11:43:12.736Z,31.40
2018-08-18T11:45:42.495Z,31.30
2018-08-18T11:48:14.374Z,31.10
2018-08-18T11:50:43.802Z,31.00
2018-08-18T11:53:12.976Z,31.40
2018-08-18T11:55:42.353Z,31.40
2018-08-18T11:58:12.858Z,31.50
2018-08-18T12:00:47.392Z,31.80
2018-08-18T12:03:17.998Z,31.90
2018-08-18T12:05:50.353Z,31.80
2018-08-18T12:08:20.608Z,31.80
2018-08-18T12:10:51.093Z,31.80
2018-08-18T12:13:27.163Z,32.10
2018-08-18T12:16:03.000Z,32.40
2018-08-18T12:18:32.875Z,32.50
2018-08-18T12:23:40.526Z,32.80
2018-08-18T12:26:12.222Z,32.80
2018-08-18T12:28:44.195Z,32.80
2018-08-18T12:31:15.946Z,32.80
2018-08-18T12:33:45.419Z,32.60
2018-08-18T12:36:14.812Z,32.90
2018-08-18T12:38:49.823Z,33.20
2018-08-18T12:41:18.943Z,32.90
2018-08-18T12:43:50.189Z,32.70
2018-08-18T12:46:21.596Z,32.20
2018-08-18T12:48:52.957Z,32.50
2018-08-18T12:51:22.411Z,32.70
2018-08-18T12:53:54.862Z,32.50
2018-08-18T12:56:26.809Z,32.10
2018-08-18T12:58:56.181Z,32.70
2018-08-18T13:01:39.769Z,32.50
2018-08-18T13:04:12.166Z,32.60
2018-08-18T13:06:43.938Z,32.10
2018-08-18T13:09:14.935Z,32.50
2018-08-18T13:11:45.351Z,33.00
2018-08-18T13:14:18.997Z,33.20
2018-08-18T13:16:48.138Z,33.40
2018-08-18T13:19:19.583Z,33.60
2018-08-18T13:21:48.772Z,32.90
2018-08-18T13:24:18.867Z,32.50
2018-08-18T13:26:48.104Z,32.30
2018-08-18T13:29:17.487Z,32.10
2018-08-18T13:31:46.792Z,32.20
2018-08-18T13:34:17.091Z,32.40
2018-08-18T13:36:47.156Z,32.40
2018-08-18T13:39:19.737Z,31.60
2018-08-18T13:41:50.774Z,31.60
2018-08-18T13:44:26.684Z,31.30
2018-08-18T13:46:56.237Z,31.50
2018-08-18T13:49:26.412Z,31.20
2018-08-18T13:51:55.350Z,31.60
2018-08-18T13:54:24.892Z,31.70
2018-08-18T13:56:54.159Z,31.90
2018-08-18T13:59:39.025Z,31.30
2018-08-18T14:02:08.315Z,31.50
2018-08-18T14:04:40.385Z,31.90
2018-08-18T14:07:09.849Z,32.40
2018-08-18T14:09:40.765Z,32.70
2018-08-18T14:12:17.349Z,32.80
2018-08-18T14:14:47.038Z,32.50
2018-08-18T14:17:18.344Z,32.30
2018-08-18T14:19:47.552Z,32.30
2018-08-18T14:22:18.985Z,32.60
2018-08-18T14:24:47.851Z,32.70
2018-08-18T14:27:20.326Z,32.60
2018-08-18T14:29:49.163Z,32.40
2018-08-18T14:32:23.272Z,32.20
2018-08-18T14:34:56.700Z,32.30
2018-08-18T14:37:25.523Z,32.40
2018-08-18T14:39:54.581Z,32.50
2018-08-18T14:42:23.823Z,32.40
2018-08-18T14:44:55.813Z,32.40
2018-08-18T14:47:25.288Z,32.80
2018-08-18T14:50:09.629Z,33.10
2018-08-18T14:52:38.753Z,32.90
2018-08-18T14:55:07.635Z,32.90
2018-08-18T14:57:37.784Z,32.60
2018-08-18T15:00:07.129Z,32.30
2018-08-18T15:02:36.182Z,32.20
2018-08-18T15:05:05.156Z,32.20
2018-08-18T15:07:38.838Z,32.60
2018-08-18T15:10:07.649Z,32.60
2018-08-18T15:12:36.648Z,32.60
2018-08-18T15:15:05.685Z,32.80
2018-08-18T15:17:34.656Z,32.50
2018-08-18T15:20:03.726Z,32.70
2018-08-18T15:22:34.655Z,33.10
2018-08-18T15:25:03.525Z,32.90
2018-08-18T15:27:32.670Z,32.40
2018-08-18T15:30:05.627Z,32.30
2018-08-18T15:32:34.708Z,32.10
2018-08-18T15:35:03.676Z,31.80
2018-08-18T15:37:32.549Z,31.60
2018-08-18T15:40:01.458Z,31.60
2018-08-18T15:42:30.340Z,31.50
2018-08-18T15:45:04.411Z,31.40
2018-08-18T15:47:33.222Z,30.90
2018-08-18T15:50:02.197Z,30.80
2018-08-18T15:52:33.142Z,30.70
2018-08-18T15:55:03.756Z,30.70
2018-08-18T15:57:33.128Z,30.30
2018-08-18T16:00:02.227Z,29.90
2018-08-18T16:02:31.047Z,30.10
2018-08-18T16:04:59.934Z,29.80
2018-08-18T16:07:29.129Z,29.80
2018-08-18T16:09:57.910Z,29.90
2018-08-18T16:12:26.792Z,30.10
2018-08-18T16:14:55.657Z,30.30
2018-08-18T16:17:24.913Z,30.50
2018-08-18T16:19:53.795Z,30.10
2018-08-18T16:22:22.666Z,30.40
2018-08-18T16:24:51.544Z,30.70
2018-08-18T16:27:20.332Z,30.80
2018-08-18T16:29:49.772Z,30.70
2018-08-18T16:32:22.925Z,30.70
2018-08-18T16:35:13.312Z,30.60
2018-08-18T16:37:45.667Z,30.60
2018-08-18T16:40:14.843Z,29.50
2018-08-18T16:42:43.692Z,28.70
2018-08-18T16:45:13.506Z,28.50
2018-08-18T16:47:51.552Z,28.40
2018-08-18T16:50:20.716Z,28.40
2018-08-18T16:52:49.594Z,28.20
2018-08-18T16:55:18.420Z,27.80
2018-08-18T16:57:47.251Z,28.00
2018-08-18T17:00:16.084Z,27.90
2018-08-18T17:02:44.896Z,28.20
2018-08-18T17:05:13.846Z,28.40
2018-08-18T17:07:43.966Z,28.10
2018-08-18T17:10:13.502Z,28.20
2018-08-18T17:12:42.399Z,27.80
2018-08-18T17:15:11.208Z,27.70
2018-08-18T17:17:40.008Z,27.50
2018-08-18T17:20:09.689Z,27.80
2018-08-18T17:22:38.564Z,27.30
2018-08-18T17:25:08.868Z,26.50
2018-08-18T17:27:40.912Z,26.30
2018-08-18T17:30:09.726Z,26.20
2018-08-18T17:32:38.505Z,26.40
2018-08-18T17:35:07.432Z,26.70
2018-08-18T17:37:36.239Z,26.90
2018-08-18T17:40:05.567Z,26.50
2018-08-18T17:42:34.449Z,26.50
2018-08-18T17:45:03.208Z,26.20
2018-08-18T17:47:33.711Z,25.60
2018-08-18T17:50:02.731Z,25.40
2018-08-18T17:52:31.941Z,25.40
2018-08-18T17:55:15.981Z,25.70
2018-08-18T17:57:45.599Z,25.90
2018-08-18T18:00:22.575Z,26.00
2018-08-18T18:02:56.466Z,25.80
2018-08-18T18:05:27.873Z,25.60
2018-08-18T18:07:59.037Z,25.40
2018-08-18T18:10:29.914Z,25.30
2018-08-18T18:12:58.951Z,25.60
2018-08-18T18:15:38.044Z,25.50
2018-08-18T18:18:11.509Z,25.60
2018-08-18T18:20:40.424Z,25.30
2018-08-18T18:23:12.098Z,25.40
2018-08-18T18:25:40.981Z,25.40
2018-08-18T18:28:09.848Z,25.50
2018-08-18T18:30:39.381Z,25.40
2018-08-18T18:33:09.150Z,25.70
2018-08-18T18:35:37.995Z,25.50
2018-08-18T18:38:07.077Z,24.80
2018-08-18T18:40:39.262Z,24.80
2018-08-18T18:43:08.355Z,25.00
2018-08-18T18:45:37.271Z,25.00
2018-08-18T18:48:07.373Z,24.80
2018-08-18T18:50:37.096Z,24.30
2018-08-18T18:53:05.936Z,24.30
2018-08-18T18:55:41.210Z,24.50
2018-08-18T18:58:12.354Z,24.30
2018-08-18T19:00:45.500Z,24.50
2018-08-18T19:03:14.501Z,24.30
2018-08-18T19:05:47.536Z,24.10
2018-08-18T19:08:18.020Z,24.20
2018-08-18T19:10:47.160Z,24.50
2018-08-18T19:13:16.730Z,23.50
2018-08-18T19:15:46.623Z,23.60
2018-08-18T19:18:15.741Z,23.80
2018-08-18T19:20:44.605Z,23.70
2018-08-18T19:23:15.287Z,24.00
2018-08-18T19:25:45.441Z,24.20
2018-08-18T19:28:23.431Z,24.20
2018-08-18T19:30:52.376Z,24.20
2018-08-18T19:33:21.697Z,24.20
2018-08-18T19:35:52.970Z,24.30
2018-08-18T19:38:22.972Z,24.10
2018-08-18T19:40:54.238Z,23.80
2018-08-18T19:43:25.096Z,24.00
2018-08-18T19:45:54.569Z,24.10
2018-08-18T19:48:24.586Z,24.10
2018-08-18T19:53:33.949Z,23.90
2018-08-18T19:56:03.227Z,23.90
2018-08-18T19:58:32.341Z,24.00
2018-08-18T20:03:35.835Z,24.00
2018-08-18T20:06:15.903Z,23.90
2018-08-18T20:08:44.723Z,23.70
2018-08-18T20:11:13.597Z,23.20
2018-08-18T20:13:42.459Z,23.20
2018-08-18T20:16:11.309Z,23.20
2018-08-18T20:18:40.224Z,22.80
2018-08-18T20:21:09.006Z,22.70
2018-08-18T20:23:37.858Z,23.00
2018-08-18T20:26:06.758Z,23.00
2018-08-18T20:28:35.604Z,22.60
2018-08-18T20:31:04.494Z,22.40
2018-08-18T20:33:33.321Z,22.50
2018-08-18T20:36:02.521Z,22.50
2018-08-18T20:38:36.644Z,22.40
2018-08-18T20:41:05.464Z,22.50
2018-08-18T20:43:34.280Z,22.60
2018-08-18T20:46:03.173Z,22.70
2018-08-18T20:48:32.062Z,22.70
2018-08-18T20:51:01.383Z,22.40
2018-08-18T20:53:30.159Z,22.50
2018-08-18T20:56:01.623Z,22.50
2018-08-18T20:58:32.108Z,22.10
2018-08-18T21:01:01.496Z,22.10
2018-08-18T21:03:44.475Z,21.80
2018-08-18T21:06:15.116Z,22.00
2018-08-18T21:08:44.034Z,21.70
2018-08-18T21:11:12.880Z,21.50
2018-08-18T21:13:41.665Z,21.50
2018-08-18T21:16:10.613Z,21.70
2018-08-18T21:18:39.479Z,21.40
2018-08-18T21:21:26.003Z,21.40
2018-08-18T21:23:55.084Z,21.40
2018-08-18T21:26:24.026Z,21.50
2018-08-18T21:28:55.010Z,21.60
2018-08-18T21:31:29.088Z,21.40
2018-08-18T21:33:59.530Z,21.10
2018-08-18T21:36:28.614Z,21.20
2018-08-18T21:39:00.261Z,21.10
2018-08-18T21:41:30.265Z,20.90
2018-08-18T21:43:59.220Z,21.10
2018-08-18T21:46:28.081Z,21.20
2018-08-18T21:48:56.912Z,21.10
2018-08-18T21:51:27.014Z,21.00
2018-08-18T21:53:55.873Z,20.80
2018-08-18T21:56:24.797Z,20.60
2018-08-18T21:58:53.604Z,20.70
2018-08-18T22:01:23.964Z,20.50
2018-08-18T22:03:55.517Z,20.70
2018-08-18T22:06:24.534Z,20.90
2018-08-18T22:09:03.268Z,20.80
2018-08-18T22:11:32.189Z,20.60
2018-08-18T22:14:01.015Z,20.50
2018-08-18T22:16:29.853Z,20.60
2018-08-18T22:19:02.984Z,20.50
2018-08-18T22:21:32.463Z,20.40
2018-08-18T22:24:02.679Z,20.20
2018-08-18T22:26:31.512Z,20.30
2018-08-18T22:29:02.301Z,20.00
2018-08-18T22:31:35.190Z,19.90
2018-08-18T22:34:05.173Z,20.10
2018-08-18T22:36:35.212Z,20.10
2018-08-18T22:39:06.232Z,19.90
2018-08-18T22:41:35.039Z,20.10
2018-08-18T22:44:03.939Z,20.20
2018-08-18T22:46:39.108Z,20.20
2018-08-18T22:49:08.035Z,20.50
2018-08-18T22:51:36.875Z,20.30
2018-08-18T22:54:05.666Z,20.30
2018-08-18T22:56:35.695Z,20.40
2018-08-18T22:59:06.622Z,20.50
2018-08-18T23:01:36.993Z,20.30
2018-08-18T23:04:18.923Z,20.50
2018-08-18T23:06:49.667Z,20.70
2018-08-18T23:09:19.084Z,20.60
2018-08-18T23:11:48.167Z,20.40
2018-08-18T23:14:17.355Z,20.40
2018-08-18T23:16:46.512Z,20.50
2018-08-18T23:19:15.685Z,20.50
2018-08-18T23:24:28.496Z,20.40
2018-08-18T23:26:58.064Z,20.10
2018-08-18T23:29:27.573Z,20.20
2018-08-18T23:31:57.064Z,20.40
2018-08-18T23:34:26.260Z,20.30
2018-08-18T23:36:56.113Z,20.20
2018-08-18T23:39:25.234Z,20.50
2018-08-18T23:42:26.167Z,20.70
2018-08-18T23:44:55.751Z,20.80
2018-08-18T23:47:25.202Z,20.20
2018-08-18T23:49:54.274Z,20.30
2018-08-18T23:52:23.661Z,20.20
2018-08-18T23:54:53.044Z,20.20
2018-08-18T23:57:22.256Z,20.40
2018-08-18T23:59:51.662Z,20.40
